createdAt,value
2023-05-23T00:01:07.249Z,20.70
2023-05-23T00:03:35.147Z,20.70
2023-05-23T00:06:02.693Z,20.70
2023-05-23T00:08:29.976Z,20.60
2023-05-23T00:10:57.322Z,20.60
2023-05-23T00:13:28.755Z,20.50
2023-05-23T00:15:56.346Z,20.50
2023-05-23T00:18:24.810Z,20.50
2023-05-23T00:20:52.255Z,20.50
2023-05-23T00:23:20.803Z,20.50
2023-05-23T00:25:54.167Z,20.50
2023-05-23T00:28:22.429Z,20.50
2023-05-23T00:30:50.018Z,20.50
2023-05-23T00:33:17.873Z,20.50
2023-05-23T00:35:45.356Z,20.40
2023-05-23T00:38:14.380Z,20.50
2023-05-23T00:40:41.665Z,20.50
2023-05-23T00:43:10.040Z,20.50
2023-05-23T00:45:37.367Z,20.40
2023-05-23T00:48:07.717Z,20.40
2023-05-23T00:50:36.232Z,20.30
2023-05-23T00:53:04.651Z,20.30
2023-05-23T00:55:32.786Z,20.30
2023-05-23T00:58:00.837Z,20.20
2023-05-23T01:00:28.959Z,20.10
2023-05-23T01:02:56.615Z,20.20
2023-05-23T01:05:25.127Z,20.20
2023-05-23T01:07:54.762Z,20.20
2023-05-23T01:10:25.988Z,20.20
2023-05-23T01:13:15.576Z,20.20
2023-05-23T01:16:05.015Z,20.20
2023-05-23T01:18:54.389Z,20.10
2023-05-23T01:21:23.951Z,20.10
2023-05-23T01:24:07.200Z,20.10
2023-05-23T01:27:12.087Z,20.00
2023-05-23T01:29:47.505Z,20.00
2023-05-23T01:32:16.220Z,20.00
2023-05-23T01:34:44.008Z,20.00
2023-05-23T01:37:12.013Z,20.00
2023-05-23T01:39:39.412Z,20.00
2023-05-23T01:42:07.534Z,20.00
2023-05-23T01:44:36.349Z,20.00
2023-05-23T01:47:05.397Z,19.90
2023-05-23T01:49:35.440Z,19.80
2023-05-23T01:52:03.179Z,19.80
2023-05-23T01:54:32.402Z,19.70
2023-05-23T01:57:01.427Z,19.60
2023-05-23T01:59:29.094Z,19.60
2023-05-23T02:01:58.452Z,19.60
2023-05-23T02:04:26.051Z,19.60
2023-05-23T02:06:53.355Z,19.60
2023-05-23T02:09:21.101Z,19.50
2023-05-23T02:11:48.691Z,19.50
2023-05-23T02:14:16.032Z,19.50
2023-05-23T02:16:43.461Z,19.60
2023-05-23T02:19:10.926Z,19.50
2023-05-23T02:21:39.991Z,19.50
2023-05-23T02:24:07.409Z,19.50
2023-05-23T02:26:34.683Z,19.50
2023-05-23T02:29:01.960Z,19.50
2023-05-23T02:31:29.998Z,19.50
2023-05-23T02:33:57.337Z,19.40
2023-05-23T02:36:24.697Z,19.40
2023-05-23T02:38:51.975Z,19.40
2023-05-23T02:41:19.340Z,19.30
2023-05-23T02:43:47.700Z,19.40
2023-05-23T02:46:16.671Z,19.40
2023-05-23T02:48:44.588Z,19.40
2023-05-23T02:51:13.737Z,19.40
2023-05-23T02:53:41.327Z,19.40
2023-05-23T02:56:09.797Z,19.30
2023-05-23T02:58:37.339Z,19.30
2023-05-23T03:01:06.985Z,19.30
2023-05-23T03:03:35.515Z,19.20
2023-05-23T03:06:06.363Z,19.20
2023-05-23T03:08:33.763Z,19.20
2023-05-23T03:11:01.153Z,19.20
2023-05-23T03:13:28.955Z,19.20
2023-05-23T03:15:56.442Z,19.20
2023-05-23T03:18:24.066Z,19.20
2023-05-23T03:20:51.974Z,19.20
2023-05-23T03:23:23.153Z,19.10
2023-05-23T03:25:50.653Z,19.00
2023-05-23T03:28:18.089Z,19.00
2023-05-23T03:30:45.858Z,18.90
2023-05-23T03:33:13.231Z,18.80
2023-05-23T03:35:40.809Z,18.70
2023-05-23T03:38:08.464Z,18.60
2023-05-23T03:40:35.745Z,18.50
2023-05-23T03:43:06.640Z,18.60
2023-05-23T03:45:36.832Z,18.50
2023-05-23T03:48:11.012Z,18.50
2023-05-23T03:50:38.626Z,18.60
2023-05-23T03:53:07.241Z,18.50
2023-05-23T03:55:35.820Z,18.60
2023-05-23T03:58:04.432Z,18.50
2023-05-23T04:00:31.847Z,18.60
2023-05-23T04:03:01.151Z,18.60
2023-05-23T04:05:29.455Z,18.60
2023-05-23T04:07:57.084Z,18.60
2023-05-23T04:10:24.698Z,18.70
2023-05-23T04:12:53.382Z,18.60
2023-05-23T04:15:21.624Z,18.50
2023-05-23T04:18:04.327Z,18.40
2023-05-23T04:20:31.796Z,18.30
2023-05-23T04:22:59.940Z,18.20
2023-05-23T04:25:27.937Z,18.20
2023-05-23T04:28:06.601Z,18.30
2023-05-23T04:30:34.085Z,18.40
2023-05-23T04:33:01.669Z,18.50
2023-05-23T04:35:29.920Z,18.60
2023-05-23T04:37:57.416Z,18.60
2023-05-23T04:40:27.077Z,18.70
2023-05-23T04:43:18.079Z,18.70
2023-05-23T04:45:53.316Z,18.70
2023-05-23T04:48:39.008Z,18.70
2023-05-23T04:51:07.809Z,18.80
2023-05-23T04:53:39.368Z,18.80
2023-05-23T04:56:08.833Z,18.80
2023-05-23T04:58:41.442Z,18.90
2023-05-23T05:01:11.076Z,19.00
2023-05-23T05:03:39.615Z,19.00
2023-05-23T05:06:08.477Z,19.10
2023-05-23T05:08:37.135Z,19.20
2023-05-23T05:11:08.032Z,19.30
2023-05-23T05:13:35.503Z,19.30
2023-05-23T05:16:04.554Z,19.30
2023-05-23T05:18:32.313Z,19.40
2023-05-23T05:20:59.782Z,19.40
2023-05-23T05:23:30.198Z,19.50
2023-05-23T05:25:59.091Z,19.60
2023-05-23T05:28:26.362Z,19.70
2023-05-23T05:30:55.481Z,19.90
2023-05-23T05:33:23.935Z,20.00
2023-05-23T05:35:57.502Z,20.10
2023-05-23T05:38:24.866Z,20.40
2023-05-23T05:40:52.377Z,20.70
2023-05-23T05:43:20.464Z,21.00
2023-05-23T05:45:48.165Z,21.30
2023-05-23T05:48:16.629Z,21.50
2023-05-23T05:50:45.561Z,21.90
2023-05-23T05:53:13.745Z,22.30
2023-05-23T05:55:41.154Z,22.80
2023-05-23T05:58:08.608Z,23.30
2023-05-23T06:00:56.451Z,23.80
2023-05-23T06:03:24.933Z,24.30
2023-05-23T06:05:56.213Z,24.60
2023-05-23T06:08:23.813Z,25.00
2023-05-23T06:10:51.394Z,25.40
2023-05-23T06:13:19.023Z,25.60
2023-05-23T06:15:54.521Z,25.70
2023-05-23T06:18:23.032Z,25.80
2023-05-23T06:20:51.753Z,25.80
2023-05-23T06:23:27.428Z,25.60
2023-05-23T06:25:55.117Z,25.60
2023-05-23T06:28:36.247Z,25.90
2023-05-23T06:31:05.977Z,26.30
2023-05-23T06:33:33.371Z,26.70
2023-05-23T06:36:00.690Z,26.90
2023-05-23T06:38:31.445Z,27.20
2023-05-23T06:40:58.770Z,27.50
2023-05-23T06:43:26.518Z,27.70
2023-05-23T06:45:54.977Z,27.50
2023-05-23T06:48:22.336Z,27.80
2023-05-23T06:50:49.978Z,28.10
2023-05-23T06:53:19.390Z,28.40
2023-05-23T06:55:48.330Z,28.90
2023-05-23T06:58:18.744Z,29.10
2023-05-23T07:00:47.236Z,29.10
2023-05-23T07:03:27.613Z,29.20
2023-05-23T07:05:59.817Z,29.40
2023-05-23T07:08:27.774Z,29.50
2023-05-23T07:11:06.572Z,29.70
2023-05-23T07:13:40.624Z,29.60
2023-05-23T07:16:10.833Z,29.60
2023-05-23T07:18:47.542Z,29.80
2023-05-23T07:21:15.002Z,29.90
2023-05-23T07:23:42.532Z,30.20
2023-05-23T07:26:11.625Z,30.40
2023-05-23T07:28:47.417Z,30.60
2023-05-23T07:31:15.029Z,30.50
2023-05-23T07:33:43.563Z,30.50
2023-05-23T21:18:19.393Z,24.30
2023-05-23T21:20:46.920Z,24.10
2023-05-23T21:23:14.240Z,24.10
2023-05-23T21:25:41.561Z,24.10
2023-05-23T21:28:08.868Z,24.20
2023-05-23T21:30:47.422Z,24.20
2023-05-23T21:33:19.418Z,24.10
2023-05-23T21:35:46.903Z,24.10
2023-05-23T21:38:14.276Z,24.20
2023-05-23T21:40:41.737Z,24.10
2023-05-23T21:43:09.268Z,24.10
2023-05-23T21:45:39.387Z,24.20
2023-05-23T21:48:11.334Z,24.20
2023-05-23T21:50:48.492Z,24.10
2023-05-23T21:56:08.685Z,24.10
2023-05-23T21:58:36.150Z,24.10
2023-05-23T22:01:03.786Z,24.20
2023-05-23T22:03:36.211Z,24.20
2023-05-23T22:06:03.983Z,24.20
2023-05-23T22:08:33.123Z,24.10
2023-05-23T22:11:00.745Z,24.00
2023-05-23T22:13:31.188Z,24.00
2023-05-23T22:15:58.669Z,24.00
2023-05-23T22:19:22.891Z,23.90
2023-05-23T22:21:53.471Z,23.90
2023-05-23T22:24:23.299Z,23.90
2023-05-23T22:26:53.119Z,23.90
2023-05-23T22:29:21.149Z,23.80
2023-05-23T22:31:48.755Z,23.70
2023-05-23T22:34:16.198Z,23.40
2023-05-23T22:36:43.564Z,23.20
2023-05-23T22:39:10.975Z,23.10
2023-05-23T22:41:38.310Z,23.10
2023-05-23T22:44:06.981Z,23.00
2023-05-23T22:46:36.509Z,23.00
2023-05-23T22:49:04.094Z,23.00
2023-05-23T22:51:33.962Z,23.00
2023-05-23T22:54:01.848Z,22.90
2023-05-23T22:56:29.263Z,22.90
2023-05-23T22:58:56.596Z,22.90
2023-05-23T23:01:30.454Z,22.90
2023-05-23T23:04:48.804Z,22.90
2023-05-23T23:07:20.946Z,22.90
2023-05-23T23:09:49.139Z,22.90
2023-05-23T23:12:16.432Z,22.90
2023-05-23T23:14:46.209Z,23.00
2023-05-23T23:17:13.734Z,23.00
2023-05-23T23:19:41.322Z,23.00
2023-05-23T23:22:08.737Z,22.90
2023-05-23T23:24:37.338Z,22.60
2023-05-23T23:27:05.078Z,22.60
2023-05-23T23:29:36.737Z,22.60
2023-05-23T23:32:07.085Z,22.60
2023-05-23T23:34:34.433Z,22.40
2023-05-23T23:37:01.743Z,22.40
2023-05-23T23:39:29.114Z,22.40
2023-05-23T23:41:56.417Z,22.50
2023-05-23T23:44:23.778Z,22.50
2023-05-23T23:46:51.173Z,22.50
2023-05-23T23:49:21.048Z,22.50
2023-05-23T23:51:48.406Z,22.50
2023-05-23T23:54:18.121Z,22.50
2023-05-23T23:56:45.552Z,22.50
2023-05-23T23:59:12.835Z,22.50
